Ana Sayfa
METAR-TAF:

METAR-TAF

Havaalanları :

Mullan Pass Vor, Idaho, Amerika Birleşik Devletleri

Enlem: 47-27-15N, Boylam: 115-40-11W, yükseklik: 1829 m

Güncel hava durumu gözlemi

Rapor saat 22:04 UTC de 28 dakika önce yapıldı.
Rüzgar güneybatıdan 9 kt ve 20 kt'a kadar ani rüzgarlar
Sıcaklık 4°C
Nem 65%
Basınç 1015 hPa
Görüş mesafesi: 16.1 km
2400 ft yükseklikte az bulutlu
3000 ft yükseklikte parçalı bulutlu
3900 ft yükseklikte parçalı çok bulutlu

METAR: KMLP 212204Z AUTO 23009G20KT 10SM FEW024 SCT030 BKN039 04/M02 A2996 RMK AO2 RAE2158 P0000 T00441017

Saat: 15:32 (22:32 UTC)


TAF: eksik

4.000'den fazla havaalanı için hava durumu gözlemleri ve tahminleri (METAR ve TAF raporları).

Kullanılabilir istasyonlar harita üzerinde sarı ve kırmızı noktalarla gösterilir.

İstasyonun adını görmek için fareyi noktanın üzerinde gezdirin.

Sonrasında hava gözlem ve tahminlerini görmek için tıklayın.

Haritayı değiştirmek için: yaklaştırmak için siyah artı işaretli yeşil düğmeye ve uzaklaştırmak için de eksi işaretli düğmeye hızla tıklayın; bitişik haritalar için yeşil okları kullanın.


METAR-TAF: